createdAt,value
2019-04-10T00:00:44.322Z,1009.58
2019-04-10T00:01:43.195Z,1009.57
2019-04-10T00:02:43.932Z,1009.61
2019-04-10T00:03:44.083Z,1009.56
2019-04-10T00:04:43.263Z,1009.58
2019-04-10T00:05:42.854Z,1009.59
2019-04-10T00:06:42.830Z,1009.57
2019-04-10T00:07:43.755Z,1009.59
2019-04-10T00:08:42.600Z,1009.57
2019-04-10T00:09:43.387Z,1009.59
2019-04-10T00:10:42.435Z,1009.60
2019-04-10T00:11:43.143Z,1009.59
2019-04-10T00:12:42.372Z,1009.61
2019-04-10T00:13:42.909Z,1009.59
2019-04-10T00:14:42.911Z,1009.58
2019-04-10T00:15:42.345Z,1009.62
2019-04-10T00:16:42.487Z,1009.61
2019-04-10T00:17:42.935Z,1009.61
2019-04-10T00:18:42.177Z,1009.59
2019-04-10T00:19:41.679Z,1009.60
2019-04-10T00:20:49.582Z,1009.59
2019-04-10T00:21:41.824Z,1009.62
2019-04-10T00:22:42.335Z,1009.66
2019-04-10T00:23:41.599Z,1009.63
2019-04-10T00:24:41.259Z,1009.62
2019-04-10T00:25:41.236Z,1009.61
2019-04-10T00:26:48.106Z,1009.59
2019-04-10T00:27:41.017Z,1009.63
2019-04-10T00:28:41.346Z,1009.66
2019-04-10T00:29:40.836Z,1009.63
2019-04-10T00:30:40.989Z,1009.65
2019-04-10T00:31:40.673Z,1009.67
2019-04-10T00:32:43.855Z,1009.65
2019-04-10T00:33:40.974Z,1009.66
2019-04-10T00:34:40.464Z,1009.68
2019-04-10T00:35:40.410Z,1009.65
2019-04-10T00:36:40.273Z,1009.62
2019-04-10T00:37:40.828Z,1009.66
2019-04-10T00:38:42.108Z,1009.65
2019-04-10T00:39:39.995Z,1009.70
2019-04-10T00:40:39.911Z,1009.64
2019-04-10T00:41:40.681Z,1009.68
2019-04-10T00:42:39.752Z,1009.66
2019-04-10T00:43:40.124Z,1009.65
2019-04-10T00:44:46.576Z,1009.66
2019-04-10T00:45:39.776Z,1009.65
2019-04-10T00:46:40.087Z,1009.65
2019-04-10T00:47:39.369Z,1009.67
2019-04-10T00:48:39.735Z,1009.65
2019-04-10T00:49:39.939Z,1009.67
2019-04-10T00:50:39.141Z,1009.68
2019-04-10T00:51:39.507Z,1009.69
2019-04-10T00:52:38.944Z,1009.69
2019-04-10T00:53:38.856Z,1009.72
2019-04-10T00:54:39.243Z,1009.68
2019-04-10T00:55:39.706Z,1009.68
2019-04-10T00:56:39.593Z,1009.69
2019-04-10T00:57:39.306Z,1009.66
2019-04-10T00:58:39.472Z,1009.63
2019-04-10T00:59:38.391Z,1009.68
2019-04-10T01:00:39.173Z,1009.67
2019-04-10T01:01:38.728Z,1009.65
2019-04-10T01:02:38.128Z,1009.64
2019-04-10T01:03:38.255Z,1009.66
2019-04-10T01:04:38.206Z,1009.62
2019-04-10T01:05:37.804Z,1009.65
2019-04-10T01:06:37.875Z,1009.58
2019-04-10T01:07:40.119Z,1009.63
2019-04-10T01:08:40.541Z,1009.60
2019-04-10T01:09:37.560Z,1009.66
2019-04-10T01:10:37.436Z,1009.62
2019-04-10T01:11:37.300Z,1009.64
2019-04-10T01:12:38.313Z,1009.63
2019-04-10T01:13:37.132Z,1009.61
2019-04-10T01:14:38.124Z,1009.60
2019-04-10T01:15:36.964Z,1009.66
2019-04-10T01:16:37.743Z,1009.62
2019-04-10T01:17:36.904Z,1009.58
2019-04-10T01:18:37.418Z,1009.56
2019-04-10T01:19:36.627Z,1009.58
2019-04-10T01:20:37.659Z,1009.60
2019-04-10T01:21:36.806Z,1009.60
2019-04-10T01:22:36.369Z,1009.57
2019-04-10T01:23:37.954Z,1009.54
2019-04-10T01:24:36.203Z,1009.55
2019-04-10T01:25:36.793Z,1009.62
2019-04-10T01:26:37.049Z,1009.63
2019-04-10T01:27:36.113Z,1009.58
2019-04-10T01:28:36.679Z,1009.62
2019-04-10T01:29:35.782Z,1009.60
2019-04-10T01:30:35.700Z,1009.60
2019-04-10T01:31:43.437Z,1009.59
2019-04-10T01:32:36.358Z,1009.58
2019-04-10T01:33:35.476Z,1009.62
2019-04-10T01:34:35.739Z,1009.57
2019-04-10T01:35:35.320Z,1009.63
2019-04-10T01:36:35.354Z,1009.59
2019-04-10T01:37:46.910Z,1009.58
2019-04-10T01:38:35.589Z,1009.60
2019-04-10T01:39:34.975Z,1009.63
2019-04-10T01:40:35.166Z,1009.63
2019-04-10T01:41:34.770Z,1009.57
2019-04-10T01:42:34.790Z,1009.61
2019-04-10T01:43:35.133Z,1009.59
2019-04-10T01:44:34.523Z,1009.54
2019-04-10T01:45:35.588Z,1009.60
2019-04-10T01:46:36.005Z,1009.58
2019-04-10T01:47:35.221Z,1009.62
2019-04-10T01:48:34.543Z,1009.60
2019-04-10T01:49:34.092Z,1009.59
2019-04-10T01:50:34.758Z,1009.63
2019-04-10T01:51:33.923Z,1009.60
2019-04-10T01:52:33.849Z,1009.65
2019-04-10T01:53:33.872Z,1009.58
2019-04-10T01:54:33.669Z,1009.61
2019-04-10T01:55:34.258Z,1009.62
2019-04-10T01:56:36.300Z,1009.64
2019-04-10T01:57:34.407Z,1009.62
2019-04-10T01:58:33.395Z,1009.65
2019-04-10T01:59:34.065Z,1009.64
2019-04-10T02:00:33.272Z,1009.62
2019-04-10T02:01:33.078Z,1009.62
2019-04-10T02:02:33.610Z,1009.62
2019-04-10T02:03:34.051Z,1009.59
2019-04-10T02:04:33.111Z,1009.64
2019-04-10T02:05:32.742Z,1009.62
2019-04-10T02:06:33.640Z,1009.59
2019-04-10T02:07:32.573Z,1009.66
2019-04-10T02:08:32.776Z,1009.66
2019-04-10T02:09:32.424Z,1009.65
2019-04-10T02:10:32.318Z,1009.64
2019-04-10T02:11:32.310Z,1009.66
2019-04-10T02:12:32.237Z,1009.65
2019-04-10T02:13:32.072Z,1009.65
2019-04-10T02:14:32.159Z,1009.64
2019-04-10T02:15:32.223Z,1009.65
2019-04-10T02:16:32.634Z,1009.66
2019-04-10T02:17:32.636Z,1009.63
2019-04-10T02:18:31.663Z,1009.62
2019-04-10T02:19:32.283Z,1009.65
2019-04-10T02:20:31.472Z,1009.66
2019-04-10T02:21:31.793Z,1009.67
2019-04-10T02:22:31.302Z,1009.66
2019-04-10T02:23:31.346Z,1009.67
2019-04-10T02:24:31.357Z,1009.66
2019-04-10T02:25:31.055Z,1009.63
2019-04-10T02:26:31.732Z,1009.65
2019-04-10T02:27:31.952Z,1009.70
2019-04-10T02:28:31.193Z,1009.65
2019-04-10T02:29:31.493Z,1009.72
2019-04-10T02:30:32.408Z,1009.71
2019-04-10T02:31:31.914Z,1009.68
2019-04-10T02:32:30.479Z,1009.71
2019-04-10T02:33:31.422Z,1009.70
2019-04-10T02:34:30.763Z,1009.70
2019-04-10T02:35:31.465Z,1009.68
2019-04-10T02:36:31.596Z,1009.69
2019-04-10T02:37:31.131Z,1009.72
2019-04-10T02:38:47.775Z,1009.67
2019-04-10T02:39:38.155Z,1009.70
2019-04-10T02:40:31.034Z,1009.67
2019-04-10T02:41:29.982Z,1009.68
2019-04-10T02:42:30.168Z,1009.67
2019-04-10T02:43:29.533Z,1009.70
2019-04-10T02:44:30.591Z,1009.65
2019-04-10T02:45:30.163Z,1009.68
2019-04-10T02:46:29.388Z,1009.69
2019-04-10T02:47:30.702Z,1009.70
2019-04-10T02:48:29.675Z,1009.73
2019-04-10T02:49:29.966Z,1009.68
2019-04-10T02:50:29.405Z,1009.73
2019-04-10T02:51:30.492Z,1009.68
2019-04-10T02:52:28.778Z,1009.74
2019-04-10T02:53:29.618Z,1009.70
2019-04-10T02:54:29.069Z,1009.75
2019-04-10T02:55:29.174Z,1009.75
2019-04-10T02:56:28.599Z,1009.72
2019-04-10T02:57:29.437Z,1009.72
2019-04-10T02:58:29.815Z,1009.70
2019-04-10T02:59:29.169Z,1009.76
2019-04-10T03:00:28.311Z,1009.78
2019-04-10T03:01:28.068Z,1009.78
2019-04-10T03:02:29.023Z,1009.76
2019-04-10T03:03:27.835Z,1009.78
2019-04-10T03:04:28.576Z,1009.76
2019-04-10T03:05:27.663Z,1009.74
2019-04-10T03:06:29.193Z,1009.79
2019-04-10T03:07:28.386Z,1009.75
2019-04-10T03:08:43.121Z,1009.76
2019-04-10T03:09:41.823Z,1009.79
2019-04-10T03:10:37.150Z,1009.78
2019-04-10T03:11:27.996Z,1009.79
2019-04-10T03:12:28.448Z,1009.78
2019-04-10T03:13:27.735Z,1009.78
2019-04-10T03:14:28.279Z,1009.78
2019-04-10T03:15:27.254Z,1009.81
2019-04-10T03:16:27.182Z,1009.79
2019-04-10T03:17:26.651Z,1009.80
2019-04-10T03:18:26.550Z,1009.85
2019-04-10T03:19:27.582Z,1009.83
2019-04-10T03:20:26.633Z,1009.85
2019-04-10T03:21:27.011Z,1009.84
2019-04-10T03:22:27.328Z,1009.82
2019-04-10T03:23:41.952Z,1009.82
2019-04-10T03:24:26.053Z,1009.87
2019-04-10T03:25:26.708Z,1009.85
2019-04-10T03:26:25.875Z,1009.87
2019-04-10T03:27:26.107Z,1009.82
2019-04-10T03:28:25.701Z,1009.85
2019-04-10T03:29:34.611Z,1009.86
2019-04-10T03:30:27.194Z,1009.87
2019-04-10T03:31:27.738Z,1009.85
2019-04-10T03:32:28.457Z,1009.85
2019-04-10T03:33:29.677Z,1009.90
2019-04-10T03:34:28.088Z,1009.85
2019-04-10T03:35:25.121Z,1009.92
2019-04-10T03:36:25.026Z,1009.86
2019-04-10T03:37:25.039Z,1009.88
2019-04-10T03:38:25.751Z,1009.91
2019-04-10T03:39:25.774Z,1009.89
2019-04-10T03:40:24.702Z,1009.95
2019-04-10T03:41:33.088Z,1009.93
2019-04-10T03:42:25.251Z,1009.92
2019-04-10T03:43:24.447Z,1009.90
2019-04-10T03:44:24.997Z,1009.87
2019-04-10T03:45:24.429Z,1009.93
2019-04-10T03:46:24.258Z,1009.89
2019-04-10T03:47:25.062Z,1009.92
2019-04-10T03:48:25.101Z,1009.91
2019-04-10T03:49:23.922Z,1009.91
2019-04-10T03:50:23.931Z,1009.93
2019-04-10T03:51:24.777Z,1009.95
2019-04-10T03:52:23.705Z,1010.00
2019-04-10T03:53:24.546Z,1009.97
2019-04-10T03:54:23.517Z,1009.96
2019-04-10T03:55:23.418Z,1009.97
2019-04-10T03:56:23.505Z,1009.99
2019-04-10T03:57:23.239Z,1009.97
2019-04-10T03:58:25.135Z,1009.96
2019-04-10T03:59:23.065Z,1009.99
2019-04-10T04:00:23.081Z,1010.01
2019-04-10T04:01:23.035Z,1010.02
2019-04-10T04:02:23.926Z,1010.01
2019-04-10T04:03:22.754Z,1010.02
2019-04-10T04:04:23.639Z,1010.01
2019-04-10T04:05:22.567Z,1010.05
2019-04-10T04:06:23.683Z,1010.05
2019-04-10T04:07:24.595Z,1010.02
2019-04-10T04:08:23.496Z,1010.02
2019-04-10T04:09:22.212Z,1010.02
2019-04-10T04:10:26.815Z,1010.01
2019-04-10T04:11:22.041Z,1010.06
2019-04-10T04:12:22.329Z,1010.09
2019-04-10T04:13:21.877Z,1010.05
2019-04-10T04:14:22.081Z,1010.07
2019-04-10T04:15:21.944Z,1010.08
2019-04-10T04:16:28.689Z,1010.08
2019-04-10T04:17:22.202Z,1010.09
2019-04-10T04:18:21.481Z,1010.09
2019-04-10T04:19:22.040Z,1010.04
2019-04-10T04:20:21.287Z,1010.04
2019-04-10T04:21:21.189Z,1010.07
2019-04-10T04:22:21.153Z,1010.10
2019-04-10T04:23:21.507Z,1010.05
2019-04-10T04:24:23.270Z,1010.12
2019-04-10T04:25:21.920Z,1010.13
2019-04-10T04:26:21.237Z,1010.10
2019-04-10T04:27:21.612Z,1010.09
2019-04-10T04:28:21.607Z,1010.15
2019-04-10T04:29:20.614Z,1010.10
2019-04-10T04:30:20.494Z,1010.17
2019-04-10T04:31:20.404Z,1010.22
2019-04-10T04:32:20.247Z,1010.21
2019-04-10T04:33:21.145Z,1010.21
2019-04-10T04:34:20.923Z,1010.15
2019-04-10T04:35:20.061Z,1010.19
2019-04-10T04:36:20.379Z,1010.20
2019-04-10T04:37:20.801Z,1010.25
2019-04-10T04:38:19.984Z,1010.22
2019-04-10T04:39:24.967Z,1010.22
2019-04-10T04:40:21.742Z,1010.23
2019-04-10T04:41:19.632Z,1010.22
2019-04-10T04:42:19.390Z,1010.23
2019-04-10T04:43:19.568Z,1010.27
2019-04-10T04:44:20.269Z,1010.26
2019-04-10T04:45:21.521Z,1010.26
2019-04-10T04:46:19.081Z,1010.26
2019-04-10T04:47:19.136Z,1010.29
2019-04-10T04:48:19.509Z,1010.27
2019-04-10T04:49:18.793Z,1010.30
2019-04-10T04:50:19.874Z,1010.33
2019-04-10T04:51:19.650Z,1010.34
2019-04-10T04:52:18.535Z,1010.37
2019-04-10T04:53:18.503Z,1010.39
2019-04-10T04:54:19.166Z,1010.36
2019-04-10T04:55:18.353Z,1010.42
2019-04-10T04:56:18.188Z,1010.38
2019-04-10T04:57:19.146Z,1010.42
2019-04-10T04:58:18.100Z,1010.46
2019-04-10T04:59:18.415Z,1010.50
2019-04-10T05:00:17.968Z,1010.46
2019-04-10T05:01:18.914Z,1010.45
2019-04-10T05:02:17.785Z,1010.52
2019-04-10T05:03:25.726Z,1010.52
2019-04-10T05:04:17.509Z,1010.52
2019-04-10T05:05:18.462Z,1010.55
2019-04-10T05:06:18.118Z,1010.53
2019-04-10T05:07:17.250Z,1010.50
2019-04-10T05:08:17.467Z,1010.62
2019-04-10T05:09:28.821Z,1010.56
2019-04-10T05:10:17.415Z,1010.61
2019-04-10T05:11:16.924Z,1010.55
2019-04-10T05:12:18.096Z,1010.56
2019-04-10T05:13:17.925Z,1010.52
2019-04-10T05:14:17.484Z,1010.61
2019-04-10T05:15:16.618Z,1010.55
2019-04-10T05:16:16.664Z,1010.56
2019-04-10T05:17:18.136Z,1010.55
2019-04-10T05:18:16.309Z,1010.57
2019-04-10T05:19:17.281Z,1010.64
2019-04-10T05:20:16.980Z,1010.68
2019-04-10T05:21:17.088Z,1010.71
2019-04-10T05:22:16.690Z,1010.73
2019-04-10T05:23:16.151Z,1010.75
2019-04-10T05:24:15.876Z,1010.73
2019-04-10T05:25:16.851Z,1010.84
2019-04-10T05:26:16.553Z,1010.75
2019-04-10T05:27:16.062Z,1010.79
2019-04-10T05:28:15.474Z,1010.81
2019-04-10T05:29:15.446Z,1010.81
2019-04-10T05:30:16.192Z,1010.79
2019-04-10T05:31:15.219Z,1010.84
2019-04-10T05:32:15.879Z,1010.85
2019-04-10T05:33:16.144Z,1010.84
2019-04-10T05:34:15.721Z,1010.85
2019-04-10T05:35:15.203Z,1010.88
2019-04-10T05:36:15.349Z,1010.79
2019-04-10T05:37:15.655Z,1010.79
2019-04-10T05:38:14.603Z,1010.87
2019-04-10T05:39:14.689Z,1010.87
2019-04-10T05:40:15.269Z,1010.88
2019-04-10T05:41:15.396Z,1010.94
2019-04-10T05:42:14.760Z,1010.88
2019-04-10T05:43:14.166Z,1010.97
2019-04-10T05:44:14.081Z,1010.96
2019-04-10T05:45:14.829Z,1011.01
2019-04-10T05:46:14.435Z,1010.96
2019-04-10T05:47:13.831Z,1010.96
2019-04-10T05:48:13.744Z,1010.99
2019-04-10T05:49:13.655Z,1011.01
2019-04-10T05:50:13.567Z,1010.99
2019-04-10T05:51:13.607Z,1011.00
2019-04-10T05:52:13.397Z,1011.01
2019-04-10T05:53:13.310Z,1011.05
2019-04-10T05:54:13.289Z,1011.14
2019-04-10T05:55:13.910Z,1011.09
2019-04-10T05:56:13.953Z,1011.12
2019-04-10T05:57:12.971Z,1011.06
2019-04-10T05:58:13.372Z,1011.18
2019-04-10T05:59:14.340Z,1011.23
2019-04-10T06:00:12.813Z,1011.17
2019-04-10T06:01:13.561Z,1011.23
2019-04-10T06:02:13.647Z,1011.17
2019-04-10T06:03:12.472Z,1011.21
2019-04-10T06:04:13.300Z,1011.30
2019-04-10T06:05:12.297Z,1011.37
2019-04-10T06:06:12.602Z,1011.39
2019-04-10T06:07:12.752Z,1011.42
2019-04-10T06:08:12.250Z,1011.34
2019-04-10T06:09:12.163Z,1011.39
2019-04-10T06:10:11.866Z,1011.38
2019-04-10T06:11:13.563Z,1011.44
2019-04-10T06:12:11.901Z,1011.46
2019-04-10T06:13:11.669Z,1011.43
2019-04-10T06:14:11.521Z,1011.53
2019-04-10T06:15:12.708Z,1011.54
2019-04-10T06:16:11.864Z,1011.58
2019-04-10T06:17:11.493Z,1011.57
2019-04-10T06:18:12.522Z,1011.61
2019-04-10T06:19:11.454Z,1011.61
2019-04-10T06:20:11.245Z,1011.58
2019-04-10T06:21:11.140Z,1011.64
2019-04-10T06:22:11.237Z,1011.65
2019-04-10T06:23:11.515Z,1011.64
2019-04-10T06:24:11.716Z,1011.63
2019-04-10T06:25:12.860Z,1011.67
2019-04-10T06:26:10.557Z,1011.60
2019-04-10T06:27:10.440Z,1011.66
2019-04-10T06:28:10.353Z,1011.70
2019-04-10T06:29:10.829Z,1011.69
2019-04-10T06:30:10.189Z,1011.69
2019-04-10T06:31:10.375Z,1011.73
2019-04-10T06:32:11.201Z,1011.70
2019-04-10T06:33:09.944Z,1011.72
2019-04-10T06:34:11.708Z,1011.76
2019-04-10T06:35:11.181Z,1011.81
2019-04-10T06:36:09.714Z,1011.78
2019-04-10T06:37:10.167Z,1011.81
2019-04-10T06:38:10.614Z,1011.80
2019-04-10T06:39:10.795Z,1011.87
2019-04-10T06:40:18.161Z,1011.91
2019-04-10T06:41:10.461Z,1011.93
2019-04-10T06:42:09.407Z,1011.98
2019-04-10T06:43:09.115Z,1011.99
2019-04-10T06:44:09.909Z,1011.98
2019-04-10T06:45:09.413Z,1012.00
2019-04-10T06:46:08.881Z,1012.00
2019-04-10T06:47:09.840Z,1012.03
2019-04-10T06:48:08.978Z,1012.00
2019-04-10T06:49:09.296Z,1012.04
2019-04-10T06:50:08.622Z,1012.06
2019-04-10T06:51:08.679Z,1012.11
2019-04-10T06:52:08.398Z,1012.13
2019-04-10T06:53:08.510Z,1012.14
2019-04-10T06:54:11.311Z,1012.14
2019-04-10T06:55:09.162Z,1012.01
2019-04-10T06:56:09.814Z,1012.10
2019-04-10T06:57:08.294Z,1012.07
2019-04-10T06:58:07.892Z,1012.02
2019-04-10T06:59:08.775Z,1011.97
2019-04-10T07:00:12.183Z,1012.00
2019-04-10T07:01:08.404Z,1012.01
2019-04-10T07:02:19.530Z,1011.99
2019-04-10T07:03:08.514Z,1012.25
2019-04-10T07:04:08.244Z,1012.14
2019-04-10T07:05:10.433Z,1012.20
2019-04-10T07:06:14.390Z,1012.26
2019-04-10T07:07:11.308Z,1012.27
2019-04-10T07:08:15.473Z,1012.27
2019-04-10T07:09:07.596Z,1012.34
2019-04-10T07:10:20.649Z,1012.34
2019-04-10T07:11:10.007Z,1012.42
2019-04-10T07:12:06.767Z,1012.41
2019-04-10T07:13:09.298Z,1012.40
2019-04-10T07:14:12.595Z,1012.38
2019-04-10T07:15:06.515Z,1012.41
2019-04-10T07:16:06.452Z,1012.43
2019-04-10T07:17:07.518Z,1012.46
2019-04-10T07:18:08.154Z,1012.49
2019-04-10T07:19:08.855Z,1012.53
2019-04-10T07:20:07.465Z,1012.60
2019-04-10T07:21:06.421Z,1012.62
2019-04-10T07:22:12.007Z,1012.62
2019-04-10T07:23:06.952Z,1012.62
2019-04-10T07:24:08.290Z,1012.64
2019-04-10T07:25:09.281Z,1012.69
2019-04-10T07:26:06.063Z,1012.70
2019-04-10T07:27:06.273Z,1012.68
2019-04-10T07:28:08.451Z,1012.73
2019-04-10T07:29:05.392Z,1012.72
2019-04-10T07:30:05.617Z,1012.71
2019-04-10T07:31:08.244Z,1012.74
2019-04-10T07:32:09.733Z,1012.75
2019-04-10T07:33:05.527Z,1012.75
2019-04-10T07:34:04.993Z,1012.73
2019-04-10T07:35:04.927Z,1012.78
2019-04-10T07:36:09.006Z,1012.82
2019-04-10T07:37:05.733Z,1012.90
2019-04-10T07:38:05.607Z,1012.89
2019-04-10T07:39:05.449Z,1012.86
2019-04-10T07:40:04.630Z,1012.86
2019-04-10T07:41:11.150Z,1012.87
2019-04-10T07:42:04.423Z,1012.84
2019-04-10T07:43:04.291Z,1012.83
2019-04-10T07:44:04.192Z,1012.89
2019-04-10T07:45:04.104Z,1012.97
2019-04-10T07:46:04.044Z,1013.03
2019-04-10T07:47:04.772Z,1013.04
2019-04-10T07:48:04.515Z,1013.06
2019-04-10T07:49:03.785Z,1013.10
2019-04-10T07:50:04.841Z,1013.09
2019-04-10T07:51:04.827Z,1013.15
2019-04-10T07:52:03.716Z,1013.15
2019-04-10T07:53:03.473Z,1013.13
2019-04-10T07:54:04.081Z,1013.26
2019-04-10T07:55:04.403Z,1013.19
2019-04-10T07:56:07.538Z,1013.26
2019-04-10T07:57:04.205Z,1013.21
2019-04-10T07:58:03.077Z,1013.30
2019-04-10T07:59:03.002Z,1013.39
2019-04-10T08:00:03.194Z,1013.34
2019-04-10T08:01:03.091Z,1013.33
2019-04-10T08:02:05.606Z,1013.53
2019-04-10T08:03:02.669Z,1013.67
2019-04-10T08:04:02.592Z,1013.78
2019-04-10T08:05:02.512Z,1013.78
2019-04-10T08:06:02.461Z,1013.89
2019-04-10T08:07:03.085Z,1014.18
2019-04-10T08:08:03.040Z,1014.33
2019-04-10T08:09:02.188Z,1014.57
2019-04-10T08:10:02.107Z,1014.59
2019-04-10T08:11:02.029Z,1015.00
2019-04-10T08:12:02.901Z,1015.41
2019-04-10T08:13:02.401Z,1015.68
2019-04-10T08:14:01.797Z,1015.96
2019-04-10T08:15:02.777Z,1016.21
2019-04-10T08:16:02.762Z,1016.78
2019-04-10T08:17:01.624Z,1016.70
2019-04-10T08:18:02.451Z,1017.10
2019-04-10T08:19:01.921Z,1017.46
2019-04-10T08:20:01.594Z,1017.80
2019-04-10T08:21:01.232Z,1017.62
2019-04-10T08:22:01.259Z,1017.92
2019-04-10T08:23:01.563Z,1017.94
2019-04-10T08:24:00.985Z,1017.85
2019-04-10T08:25:02.265Z,1018.24
2019-04-10T08:26:00.832Z,1018.25
2019-04-10T08:27:01.183Z,1018.69
2019-04-10T08:28:00.750Z,1020.04
2019-04-10T08:29:01.614Z,1021.20
2019-04-10T08:30:01.171Z,1021.66
2019-04-10T08:31:01.012Z,1021.84
2019-04-10T08:32:01.332Z,1022.16
2019-04-10T08:33:01.636Z,1022.56
2019-04-10T08:34:01.093Z,1022.88
2019-04-10T08:35:00.379Z,1023.32
2019-04-10T08:36:01.077Z,1023.82
2019-04-10T08:36:59.977Z,1024.25
2019-04-10T08:37:59.883Z,1025.10
2019-04-10T08:38:59.796Z,1025.53
2019-04-10T08:39:59.882Z,1023.73
2019-04-10T08:41:00.634Z,1023.73
2019-04-10T08:41:59.988Z,1024.78
2019-04-10T08:42:59.927Z,1025.11
2019-04-10T08:43:59.407Z,1024.86
2019-04-10T08:44:59.322Z,1024.08
2019-04-10T08:45:59.252Z,1024.37
2019-04-10T08:47:00.107Z,1024.57
2019-04-10T08:47:59.446Z,1023.76
2019-04-10T08:49:00.018Z,1023.05
2019-04-10T08:49:58.930Z,1022.68
2019-04-10T08:50:58.919Z,1023.09
2019-04-10T08:51:59.798Z,1023.21
2019-04-10T08:52:59.910Z,1022.26
2019-04-10T08:54:00.665Z,1021.78
2019-04-10T08:54:59.511Z,1021.42
2019-04-10T08:55:58.880Z,1021.11
2019-04-10T08:56:58.413Z,1019.95
2019-04-10T08:57:58.594Z,1018.99
2019-04-10T08:58:59.227Z,1019.53
2019-04-10T08:59:58.356Z,1019.86
2019-04-10T09:00:58.706Z,1019.13
2019-04-10T09:01:58.000Z,1018.58
2019-04-10T09:02:58.183Z,1018.55
2019-04-10T09:03:57.835Z,1018.50
2019-04-10T09:04:57.762Z,1018.41
2019-04-10T09:05:58.715Z,1017.74
2019-04-10T09:06:57.962Z,1016.80
2019-04-10T09:07:57.517Z,1016.31
2019-04-10T09:08:57.453Z,1016.10
2019-04-10T09:09:58.258Z,1015.69
2019-04-10T09:10:57.354Z,1015.39
2019-04-10T09:11:57.635Z,1015.31
2019-04-10T09:12:57.902Z,1015.02
2019-04-10T09:13:57.049Z,1014.78
2019-04-10T09:14:57.204Z,1014.68
2019-04-10T09:15:58.242Z,1014.62
2019-04-10T09:16:56.846Z,1014.35
2019-04-10T09:17:57.653Z,1014.08
2019-04-10T09:18:57.675Z,1013.80
2019-04-10T09:19:56.699Z,1013.68
2019-04-10T09:20:57.281Z,1013.45
2019-04-10T09:21:57.454Z,1013.45
2019-04-10T09:23:15.522Z,1013.52
2019-04-10T09:23:57.771Z,1013.36
2019-04-10T09:24:58.367Z,1013.26
2019-04-10T09:25:56.123Z,1013.21
2019-04-10T09:26:57.033Z,1013.18
2019-04-10T09:27:56.032Z,1013.21
2019-04-10T09:28:56.980Z,1013.18
2019-04-10T09:29:56.335Z,1013.11
2019-04-10T09:30:55.737Z,1013.14
2019-04-10T09:31:57.626Z,1013.09
2019-04-10T09:32:55.585Z,1013.14
2019-04-10T09:33:55.769Z,1013.16
2019-04-10T09:34:56.180Z,1013.13
2019-04-10T09:35:55.356Z,1013.11
2019-04-10T09:36:55.311Z,1013.16
2019-04-10T09:37:55.205Z,1013.21
2019-04-10T09:38:55.188Z,1013.12
2019-04-10T09:39:56.478Z,1013.16
2019-04-10T09:40:55.231Z,1013.22
2019-04-10T09:41:54.915Z,1013.24
2019-04-10T09:42:55.558Z,1013.24
2019-04-10T09:43:54.741Z,1013.23
2019-04-10T09:44:54.890Z,1013.30
2019-04-10T09:45:55.731Z,1013.31
2019-04-10T09:46:55.508Z,1013.29
2019-04-10T09:47:54.443Z,1013.33
2019-04-10T09:48:54.361Z,1013.35
2019-04-10T09:49:55.606Z,1013.47
2019-04-10T09:50:54.214Z,1013.51
2019-04-10T09:51:54.339Z,1013.37
2019-04-10T09:52:54.549Z,1013.50
2019-04-10T09:53:54.173Z,1013.50
2019-04-10T09:54:53.972Z,1013.52
2019-04-10T09:55:54.544Z,1013.40
2019-04-10T09:56:59.118Z,1013.45
2019-04-10T09:57:53.926Z,1013.50
2019-04-10T09:58:53.601Z,1013.52
2019-04-10T09:59:54.585Z,1013.51
2019-04-10T10:00:54.437Z,1013.53
2019-04-10T10:01:53.382Z,1013.57
2019-04-10T10:02:53.310Z,1013.60
2019-04-10T10:03:53.220Z,1013.60
2019-04-10T10:04:53.571Z,1013.50
2019-04-10T10:05:53.128Z,1013.58
2019-04-10T10:06:53.545Z,1013.50
2019-04-10T10:07:55.668Z,1013.54
2019-04-10T10:08:52.838Z,1013.56
2019-04-10T10:09:52.761Z,1013.57
2019-04-10T10:10:59.735Z,1013.49
2019-04-10T10:11:53.479Z,1013.55
2019-04-10T10:12:52.697Z,1013.46
2019-04-10T10:13:52.565Z,1013.59
2019-04-10T10:14:52.378Z,1013.54
2019-04-10T10:15:52.375Z,1013.65
2019-04-10T10:16:52.598Z,1013.64
2019-04-10T10:17:52.925Z,1013.63
2019-04-10T10:18:52.193Z,1013.56
2019-04-10T10:19:53.582Z,1013.50
2019-04-10T10:20:52.293Z,1013.52
2019-04-10T10:21:52.542Z,1013.64
2019-04-10T10:22:51.878Z,1013.73
2019-04-10T10:23:52.049Z,1013.68
2019-04-10T10:24:51.722Z,1013.65
2019-04-10T10:25:51.552Z,1013.66
2019-04-10T10:26:51.538Z,1013.69
2019-04-10T10:27:51.435Z,1013.68
2019-04-10T10:28:52.392Z,1013.75
2019-04-10T10:29:58.204Z,1013.68
2019-04-10T10:30:51.549Z,1013.73
2019-04-10T10:31:52.266Z,1013.70
2019-04-10T10:32:51.098Z,1013.69
2019-04-10T10:33:52.116Z,1013.76
2019-04-10T10:34:50.974Z,1013.75
2019-04-10T10:35:51.556Z,1013.80
2019-04-10T10:36:52.919Z,1013.81
2019-04-10T10:37:50.688Z,1013.88
2019-04-10T10:39:02.869Z,1013.86
2019-04-10T10:39:50.691Z,1013.84
2019-04-10T10:40:50.822Z,1013.91
2019-04-10T10:41:51.058Z,1013.90
2019-04-10T10:42:50.259Z,1013.99
2019-04-10T10:43:50.909Z,1014.22
2019-04-10T10:44:50.105Z,1014.25
2019-04-10T10:45:51.178Z,1014.38
2019-04-10T10:46:50.063Z,1014.31
2019-04-10T10:47:50.640Z,1014.26
2019-04-10T10:48:49.798Z,1014.26
2019-04-10T10:49:50.794Z,1014.28
2019-04-10T10:50:49.882Z,1014.37
2019-04-10T10:51:49.685Z,1014.27
2019-04-10T10:52:50.089Z,1014.29
2019-04-10T10:53:49.468Z,1014.24
2019-04-10T10:54:49.435Z,1014.16
2019-04-10T10:55:49.731Z,1014.21
2019-04-10T10:56:49.210Z,1014.21
2019-04-10T10:57:49.192Z,1014.14
2019-04-10T10:58:50.175Z,1014.07
2019-04-10T10:59:49.428Z,1014.13
2019-04-10T11:00:50.146Z,1014.20
2019-04-10T11:01:48.935Z,1014.18
2019-04-10T11:02:49.764Z,1014.14
2019-04-10T11:03:48.772Z,1014.23
2019-04-10T11:04:48.718Z,1014.17
2019-04-10T11:05:48.734Z,1014.34
2019-04-10T11:06:56.032Z,1014.37
2019-04-10T11:07:48.969Z,1014.40
2019-04-10T11:08:48.285Z,1014.26
2019-04-10T11:09:48.539Z,1014.33
2019-04-10T11:11:49.369Z,1014.29
2019-04-10T11:12:48.392Z,1014.33
2019-04-10T11:13:48.483Z,1014.28
2019-04-10T11:14:48.152Z,1014.14
2019-04-10T11:15:48.470Z,1014.19
2019-04-10T11:16:49.457Z,1014.17
2019-04-10T11:17:47.621Z,1014.09
2019-04-10T11:18:48.448Z,1014.04
2019-04-10T11:19:48.771Z,1013.97
2019-04-10T11:20:48.329Z,1013.95
2019-04-10T11:21:47.300Z,1013.98
2019-04-10T11:22:47.547Z,1014.05
2019-04-10T11:23:47.152Z,1013.90
2019-04-10T11:24:47.214Z,1013.90
2019-04-10T11:25:47.919Z,1013.89
2019-04-10T11:26:47.028Z,1013.85
2019-04-10T11:27:47.553Z,1013.83
2019-04-10T11:28:47.920Z,1013.85
2019-04-10T11:29:46.827Z,1013.69
2019-04-10T11:30:47.446Z,1013.67
2019-04-10T11:31:47.020Z,1013.51
2019-04-10T11:32:46.591Z,1013.45
2019-04-10T11:33:51.376Z,1013.47
2019-04-10T11:34:46.632Z,1013.40
2019-04-10T11:35:47.515Z,1013.51
2019-04-10T11:36:46.167Z,1013.46
2019-04-10T11:37:49.596Z,1013.48
2019-04-10T11:38:46.595Z,1013.48
2019-04-10T11:39:48.147Z,1013.45
2019-04-10T11:40:47.264Z,1013.51
2019-04-10T11:41:48.654Z,1013.53
2019-04-10T11:42:46.956Z,1013.47
2019-04-10T11:43:46.630Z,1013.39
2019-04-10T11:44:46.916Z,1013.30
2019-04-10T11:45:51.641Z,1013.11
2019-04-10T11:46:46.248Z,1013.36
2019-04-10T11:47:47.446Z,1013.40
2019-04-10T11:48:46.843Z,1013.23
2019-04-10T11:49:46.651Z,1013.31
2019-04-10T11:50:46.147Z,1013.34
2019-04-10T11:51:46.495Z,1013.28
2019-04-10T11:52:51.889Z,1013.34
2019-04-10T11:53:50.940Z,1013.30
2019-04-10T11:54:46.486Z,1013.25
2019-04-10T11:55:50.016Z,1013.22
2019-04-10T11:56:48.255Z,1013.31
2019-04-10T11:57:46.937Z,1013.34
2019-04-10T11:58:50.695Z,1013.34
2019-04-10T11:59:47.383Z,1013.26
2019-04-10T12:01:46.372Z,1013.33
2019-04-10T12:02:47.370Z,1013.28
2019-04-10T12:03:48.261Z,1013.28
2019-04-10T12:05:46.369Z,1013.28
2019-04-10T12:06:49.126Z,1013.25
2019-04-10T12:11:44.644Z,1013.27